createdAt,value
2022-08-25T00:00:17.547Z,30.60
2022-08-25T00:03:05.075Z,33.60
2022-08-25T00:05:33.854Z,30.80
2022-08-25T00:08:03.431Z,28.40
2022-08-25T00:10:34.846Z,32.40
2022-08-25T00:13:04.770Z,28.60
2022-08-25T00:15:33.815Z,30.00
2022-08-25T00:18:02.916Z,27.60
2022-08-25T00:20:32.544Z,31.20
2022-08-25T00:23:01.567Z,28.20
2022-08-25T00:25:30.057Z,29.60
2022-08-25T00:28:03.071Z,28.40
2022-08-25T00:30:36.778Z,27.80
2022-08-25T00:33:05.803Z,29.00
2022-08-25T00:35:34.576Z,27.00
2022-08-25T00:38:03.528Z,31.40
2022-08-25T00:40:32.430Z,29.20
2022-08-25T00:43:02.811Z,29.80
2022-08-25T00:45:31.429Z,28.60
2022-08-25T00:48:00.240Z,34.00
2022-08-25T00:50:30.545Z,31.80
2022-08-25T00:53:03.264Z,26.60
2022-08-25T00:55:35.574Z,32.20
2022-08-25T00:58:11.623Z,30.80
2022-08-25T01:00:44.188Z,30.80
2022-08-25T01:03:13.800Z,29.40
2022-08-25T01:05:44.748Z,32.20
2022-08-25T01:08:16.375Z,31.60
2022-08-25T01:10:46.549Z,29.80
2022-08-25T01:13:20.426Z,31.00
2022-08-25T01:15:53.811Z,30.00
2022-08-25T01:18:23.290Z,26.80
2022-08-25T01:20:54.092Z,27.20
2022-08-25T01:23:23.999Z,31.40
2022-08-25T01:26:01.229Z,28.60
2022-08-25T01:28:30.091Z,27.80
2022-08-25T01:30:58.872Z,29.40
2022-08-25T01:33:27.310Z,29.20
2022-08-25T01:35:57.109Z,31.40
2022-08-25T01:38:25.773Z,30.60
2022-08-25T01:40:54.193Z,30.20
2022-08-25T01:43:31.587Z,32.20
2022-08-25T01:46:00.360Z,29.80
2022-08-25T01:48:28.837Z,30.60
2022-08-25T01:50:58.632Z,33.60
2022-08-25T01:53:29.942Z,33.40
2022-08-25T01:56:10.231Z,30.60
2022-08-25T01:58:40.778Z,27.20
2022-08-25T02:01:12.531Z,33.40
2022-08-25T02:03:42.977Z,32.40
2022-08-25T02:06:15.061Z,35.20
2022-08-25T02:08:44.801Z,32.20
2022-08-25T02:11:14.109Z,36.00
2022-08-25T02:13:43.675Z,34.20
2022-08-25T02:16:18.267Z,36.40
2022-08-25T02:18:47.254Z,35.40
2022-08-25T02:21:17.645Z,32.80
2022-08-25T02:23:46.507Z,34.20
2022-08-25T02:26:16.849Z,35.80
2022-08-25T02:28:47.044Z,32.80
2022-08-25T02:31:16.514Z,39.80
2022-08-25T02:33:45.300Z,31.60
2022-08-25T02:36:13.997Z,35.80
2022-08-25T02:38:44.064Z,35.40
2022-08-25T02:41:16.728Z,32.60
2022-08-25T02:43:46.780Z,35.40
2022-08-25T02:46:15.786Z,35.60
2022-08-25T02:48:44.556Z,32.80
2022-08-25T02:51:13.756Z,33.40
2022-08-25T02:53:45.959Z,34.20
2022-08-25T02:56:16.720Z,34.20
2022-08-25T02:58:46.271Z,34.40
2022-08-25T03:01:16.503Z,35.60
2022-08-25T03:03:47.376Z,34.20
2022-08-25T03:06:19.779Z,35.40
2022-08-25T03:08:50.684Z,28.60
2022-08-25T03:11:19.299Z,29.40
2022-08-25T03:13:50.095Z,30.80
2022-08-25T03:16:19.529Z,34.40
2022-08-25T03:18:48.340Z,29.00
2022-08-25T03:21:18.160Z,46.25
2022-08-25T03:23:46.940Z,54.75
2022-08-25T03:26:30.742Z,45.20
2022-08-25T03:28:59.957Z,33.60
2022-08-25T03:31:28.772Z,35.20
2022-08-25T03:33:57.484Z,35.60
2022-08-25T03:36:26.599Z,37.40
2022-08-25T03:38:55.688Z,35.80
2022-08-25T03:41:29.187Z,33.20
2022-08-25T03:43:58.630Z,31.00
2022-08-25T03:46:29.920Z,34.40
2022-08-25T03:49:01.482Z,34.20
2022-08-25T03:51:34.677Z,35.00
2022-08-25T03:54:05.172Z,32.80
2022-08-25T03:56:35.051Z,72.50
2022-08-25T03:59:03.892Z,44.40
2022-08-25T04:01:32.843Z,37.80
2022-08-25T04:04:01.359Z,37.00
2022-08-25T04:06:29.868Z,37.80
2022-08-25T04:08:59.764Z,37.80
2022-08-25T04:11:29.198Z,36.40
2022-08-25T04:14:02.433Z,37.00
2022-08-25T04:16:33.362Z,42.80
2022-08-25T04:19:04.828Z,39.80
2022-08-25T04:21:33.715Z,38.80
2022-08-25T04:24:02.413Z,34.80
2022-08-25T04:26:33.392Z,35.20
2022-08-25T04:29:05.477Z,35.80
2022-08-25T04:31:35.178Z,47.00
2022-08-25T04:34:13.466Z,51.50
2022-08-25T04:36:54.192Z,44.00
2022-08-25T04:39:23.011Z,43.80
2022-08-25T04:41:52.489Z,36.40
2022-08-25T04:44:22.276Z,34.40
2022-08-25T04:46:51.053Z,39.60
2022-08-25T04:49:19.774Z,42.80
2022-08-25T04:51:48.309Z,39.40
2022-08-25T04:54:21.659Z,37.00
2022-08-25T04:56:54.044Z,38.40
2022-08-25T04:59:30.271Z,41.00
2022-08-25T05:02:02.661Z,41.00
2022-08-25T05:04:33.321Z,40.60
2022-08-25T05:07:02.877Z,40.60
2022-08-25T05:09:32.024Z,34.80
2022-08-25T05:12:02.863Z,35.40
2022-08-25T05:14:33.312Z,34.40
2022-08-25T05:17:02.871Z,38.80
2022-08-25T05:19:31.737Z,39.20
2022-08-25T05:22:00.537Z,37.60
2022-08-25T05:24:29.656Z,38.00
2022-08-25T05:26:58.799Z,37.80
2022-08-25T05:29:27.414Z,33.40
2022-08-25T05:31:57.539Z,41.80
2022-08-25T05:34:26.022Z,37.80
2022-08-25T05:36:54.688Z,41.00
2022-08-25T05:39:23.329Z,38.80
2022-08-25T05:41:55.326Z,42.20
2022-08-25T05:44:23.777Z,35.60
2022-08-25T05:46:52.539Z,37.60
2022-08-25T05:49:22.349Z,42.80
2022-08-25T05:51:50.782Z,39.80
2022-08-25T05:54:19.754Z,43.80
2022-08-25T05:56:48.283Z,38.00
2022-08-25T05:59:16.679Z,37.00
2022-08-25T06:02:03.424Z,39.80
2022-08-25T06:04:33.570Z,33.60
2022-08-25T06:07:02.459Z,36.40
2022-08-25T06:09:30.933Z,43.40
2022-08-25T06:11:59.340Z,37.80
2022-08-25T06:14:27.963Z,35.80
2022-08-25T06:16:56.955Z,33.00
2022-08-25T06:19:25.356Z,37.00
2022-08-25T06:21:59.028Z,33.00
2022-08-25T06:24:29.250Z,40.20
2022-08-25T06:26:58.174Z,37.20
2022-08-25T06:29:27.455Z,39.00
2022-08-25T06:31:55.961Z,34.60
2022-08-25T06:34:24.705Z,37.60
2022-08-25T06:36:54.026Z,38.40
2022-08-25T06:39:24.292Z,41.00
2022-08-25T06:41:54.011Z,39.40
2022-08-25T06:44:22.945Z,38.00
2022-08-25T06:46:51.985Z,42.20
2022-08-25T06:49:21.504Z,37.40
2022-08-25T06:51:50.638Z,39.60
2022-08-25T06:54:19.097Z,36.60
2022-08-25T06:56:49.679Z,39.20
2022-08-25T06:59:19.167Z,41.25
2022-08-25T07:01:50.113Z,45.40
2022-08-25T07:04:19.056Z,48.75
2022-08-25T07:06:48.207Z,44.25
2022-08-25T07:09:16.924Z,40.00
2022-08-25T07:11:46.478Z,49.00
2022-08-25T07:14:18.975Z,41.75
2022-08-25T07:16:50.290Z,42.60
2022-08-25T07:19:21.010Z,41.00
2022-08-25T07:21:54.202Z,45.75
2022-08-25T07:24:23.886Z,44.50
2022-08-25T07:26:53.298Z,40.60
2022-08-25T07:29:32.306Z,43.60
2022-08-25T07:32:02.792Z,49.33
2022-08-25T07:34:52.405Z,46.75
2022-08-25T07:37:47.583Z,48.75
2022-08-25T07:40:14.703Z,46.25
2022-08-25T07:42:43.466Z,50.25
2022-08-25T07:45:15.522Z,49.75
2022-08-25T07:47:47.187Z,48.50
2022-08-25T07:50:15.645Z,49.25
2022-08-25T07:52:44.110Z,38.80
2022-08-25T07:55:21.380Z,45.75
2022-08-25T07:57:55.358Z,46.50
2022-08-25T08:00:30.176Z,40.50
2022-08-25T08:02:59.105Z,47.75
2022-08-25T08:05:28.357Z,50.75
2022-08-25T08:07:57.397Z,47.50
2022-08-25T08:10:47.791Z,45.75
2022-08-25T08:13:18.403Z,48.50
2022-08-25T08:15:49.072Z,42.00
2022-08-25T08:18:18.371Z,46.75
2022-08-25T08:20:48.224Z,44.75
2022-08-25T08:23:17.896Z,47.00
2022-08-25T08:25:46.538Z,45.25
2022-08-25T08:28:15.173Z,51.00
2022-08-25T08:30:52.938Z,44.50
2022-08-25T08:33:25.581Z,39.25
2022-08-25T08:36:05.661Z,37.50
2022-08-25T08:38:35.149Z,38.67
2022-08-25T08:41:40.133Z,43.75
2022-08-25T08:44:29.393Z,41.75
2022-08-25T08:47:09.125Z,43.00
2022-08-25T08:49:49.431Z,41.50
2022-08-25T08:52:21.277Z,34.00
2022-08-25T08:54:56.890Z,41.75
2022-08-25T08:57:29.449Z,40.40
2022-08-25T09:00:03.022Z,41.75
2022-08-25T09:02:51.665Z,38.00
2022-08-25T09:05:28.761Z,44.25
2022-08-25T09:07:59.403Z,43.50
2022-08-25T09:10:40.604Z,36.20
2022-08-25T09:13:19.932Z,41.40
2022-08-25T09:16:23.317Z,31.40
2022-08-25T09:19:23.508Z,37.80
2022-08-25T09:22:02.568Z,35.40
2022-08-25T09:24:58.468Z,38.60
2022-08-25T09:27:38.177Z,43.50
2022-08-25T09:30:12.296Z,36.75
2022-08-25T09:32:48.982Z,32.20
2022-08-25T09:35:26.178Z,34.00
2022-08-25T09:38:02.226Z,29.20
2022-08-25T09:40:34.976Z,34.80
2022-08-25T09:43:18.980Z,40.00
2022-08-25T09:45:50.342Z,29.80
2022-08-25T09:48:26.977Z,41.20
2022-08-25T09:51:02.419Z,37.00
2022-08-25T09:53:34.801Z,37.00
2022-08-25T09:56:07.504Z,29.40
2022-08-25T09:58:36.417Z,34.20
2022-08-25T10:01:16.913Z,33.25
2022-08-25T10:04:01.030Z,32.60
2022-08-25T10:06:36.370Z,36.20
2022-08-25T10:09:08.357Z,34.40
2022-08-25T10:11:43.496Z,29.60
2022-08-25T10:14:23.028Z,32.80
2022-08-25T10:16:54.613Z,31.40
2022-08-25T10:19:27.165Z,30.80
2022-08-25T10:22:08.329Z,28.40
2022-08-25T10:24:43.997Z,27.60
2022-08-25T10:27:25.433Z,33.75
2022-08-25T10:30:15.427Z,29.60
2022-08-25T10:33:01.956Z,29.75
2022-08-25T10:35:41.686Z,29.20
2022-08-25T10:38:27.217Z,30.20
2022-08-25T10:41:11.143Z,37.00
2022-08-25T10:43:50.416Z,31.00
2022-08-25T10:46:32.924Z,32.20
2022-08-25T10:49:05.683Z,29.40
2022-08-25T10:51:52.081Z,30.60
2022-08-25T10:54:33.429Z,31.00
2022-08-25T10:57:18.317Z,32.25
2022-08-25T11:00:05.093Z,32.75
2022-08-25T11:03:02.490Z,32.50
2022-08-25T11:05:36.837Z,28.60
2022-08-25T11:08:11.997Z,25.40
2022-08-25T11:10:45.914Z,27.00
2022-08-25T11:13:25.973Z,29.80
2022-08-25T11:16:19.123Z,21.20
2022-08-25T11:18:55.664Z,30.00
2022-08-25T11:21:34.891Z,27.20
2022-08-25T11:24:16.989Z,21.80
2022-08-25T11:26:53.173Z,18.80
2022-08-25T11:29:28.114Z,21.40
2022-08-25T11:32:01.209Z,20.80
2022-08-25T11:34:33.918Z,21.20
2022-08-25T11:37:11.267Z,21.00
2022-08-25T11:40:03.020Z,20.40
2022-08-25T11:42:43.053Z,18.60
2022-08-25T11:45:45.645Z,22.80
2022-08-25T11:48:25.038Z,17.60
2022-08-25T11:51:03.006Z,24.80
2022-08-25T11:53:35.603Z,20.20
2022-08-25T11:56:09.499Z,21.20
2022-08-25T11:58:47.774Z,21.60
2022-08-25T12:01:51.841Z,17.80
2022-08-25T12:04:44.244Z,21.60
2022-08-25T12:07:27.152Z,17.40
2022-08-25T12:10:18.706Z,20.80
2022-08-25T12:13:08.064Z,22.00
2022-08-25T12:16:00.901Z,17.20
2022-08-25T12:18:46.456Z,18.00
2022-08-25T12:21:31.055Z,18.40
2022-08-25T12:24:12.039Z,20.00
2022-08-25T12:26:51.853Z,24.00
2022-08-25T12:29:30.511Z,18.00
2022-08-25T12:32:21.921Z,19.80
2022-08-25T12:35:14.696Z,20.00
2022-08-25T12:37:59.770Z,16.00
2022-08-25T12:40:34.964Z,18.00
2022-08-25T12:43:07.872Z,32.75
2022-08-25T12:45:43.448Z,22.40
2022-08-25T12:48:44.315Z,17.00
2022-08-25T12:51:19.667Z,17.80
2022-08-25T12:53:54.338Z,23.20
2022-08-25T12:56:39.045Z,14.00
2022-08-25T12:59:16.699Z,18.20
2022-08-25T13:02:14.093Z,19.20
2022-08-25T13:05:14.592Z,17.60
2022-08-25T13:07:58.467Z,19.00
2022-08-25T13:10:42.214Z,20.00
2022-08-25T13:13:20.219Z,18.20
2022-08-25T13:16:00.031Z,19.80
2022-08-25T13:18:30.703Z,18.40
2022-08-25T13:21:10.598Z,21.00
2022-08-25T13:23:43.838Z,17.40
2022-08-25T13:26:16.614Z,17.20
2022-08-25T13:28:55.576Z,12.40
2022-08-25T13:31:28.181Z,17.80
2022-08-25T13:34:00.204Z,17.00
2022-08-25T13:36:53.985Z,19.20
2022-08-25T13:39:45.220Z,16.00
2022-08-25T13:42:18.201Z,18.40
2022-08-25T13:44:52.020Z,17.40
2022-08-25T13:47:43.375Z,20.40
2022-08-25T13:50:21.400Z,19.40
2022-08-25T13:52:55.119Z,18.80
2022-08-25T13:55:27.750Z,18.40
2022-08-25T13:58:00.519Z,18.80
2022-08-25T14:00:34.773Z,18.60
2022-08-25T14:03:13.115Z,22.20
2022-08-25T14:05:45.585Z,18.80
2022-08-25T14:08:32.629Z,16.20
2022-08-25T14:11:13.882Z,23.40
2022-08-25T14:13:46.284Z,21.60
2022-08-25T14:16:21.309Z,20.40
2022-08-25T14:18:52.781Z,22.80
2022-08-25T14:21:27.483Z,23.80
2022-08-25T14:23:58.178Z,24.80
2022-08-25T14:26:29.036Z,30.00
2022-08-25T14:29:00.584Z,24.20
2022-08-25T14:31:33.491Z,33.80
2022-08-25T14:34:06.652Z,19.80
2022-08-25T14:36:36.516Z,18.40
2022-08-25T14:39:08.899Z,30.00
2022-08-25T14:41:40.862Z,26.20
2022-08-25T14:44:11.869Z,21.60
2022-08-25T14:46:46.078Z,20.20
2022-08-25T14:49:24.902Z,19.80
2022-08-25T14:51:55.341Z,21.40
2022-08-25T14:54:28.478Z,18.20
2022-08-25T14:56:58.298Z,25.00
2022-08-25T14:59:28.249Z,20.40
2022-08-25T15:01:57.597Z,25.40
2022-08-25T15:04:29.959Z,15.20
2022-08-25T15:07:22.778Z,18.20
2022-08-25T15:09:51.589Z,19.80
2022-08-25T15:12:47.368Z,19.00
2022-08-25T15:15:19.483Z,19.80
2022-08-25T15:17:50.462Z,23.20
2022-08-25T15:20:19.233Z,17.00
2022-08-25T15:22:48.232Z,23.00
2022-08-25T15:25:18.107Z,23.60
2022-08-25T15:27:47.352Z,18.00
2022-08-25T15:30:16.451Z,23.25
2022-08-25T15:32:48.627Z,17.60
2022-08-25T15:35:17.589Z,20.20
2022-08-25T15:37:48.127Z,24.60
2022-08-25T15:40:16.964Z,18.00
2022-08-25T15:42:46.047Z,23.00
2022-08-25T15:45:14.734Z,23.20
2022-08-25T15:47:43.257Z,20.40
2022-08-25T15:50:16.285Z,25.00
2022-08-25T15:52:46.407Z,25.25
2022-08-25T15:55:17.423Z,20.60
2022-08-25T15:57:45.950Z,19.00
2022-08-25T16:00:16.723Z,18.80
2022-08-25T16:02:46.481Z,18.80
2022-08-25T16:05:16.756Z,25.00
2022-08-25T16:07:51.813Z,24.00
2022-08-25T16:10:21.104Z,23.20
2022-08-25T16:12:50.348Z,25.40
2022-08-25T16:15:19.079Z,18.80
2022-08-25T16:17:59.024Z,25.40
2022-08-25T16:20:29.258Z,24.60
2022-08-25T16:23:00.041Z,23.00
2022-08-25T16:25:28.912Z,22.20
2022-08-25T16:27:57.666Z,23.00
2022-08-25T16:30:26.978Z,23.00
2022-08-25T16:32:56.192Z,25.40
2022-08-25T16:35:24.912Z,26.40
2022-08-25T16:37:55.765Z,19.00
2022-08-25T16:40:27.194Z,26.75
2022-08-25T16:42:55.960Z,22.80
2022-08-25T16:45:24.627Z,22.00
2022-08-25T16:47:53.340Z,21.20
2022-08-25T16:50:22.011Z,21.20
2022-08-25T16:53:08.318Z,62.50
2022-08-25T16:55:39.349Z,23.80
2022-08-25T16:58:12.691Z,25.40
2022-08-25T17:00:44.745Z,23.80
2022-08-25T17:03:13.406Z,19.20
2022-08-25T17:05:43.965Z,28.20
2022-08-25T17:08:32.183Z,27.00
2022-08-25T17:11:11.179Z,23.60
2022-08-25T17:13:44.432Z,21.60
2022-08-25T17:16:15.128Z,24.40
2022-08-25T17:18:47.576Z,26.80
2022-08-25T17:21:24.729Z,48.00
2022-08-25T17:23:56.057Z,27.40
2022-08-25T17:26:28.937Z,29.40
2022-08-25T17:28:59.401Z,25.20
2022-08-25T17:31:29.990Z,21.60
2022-08-25T17:34:00.227Z,23.80
2022-08-25T17:36:29.009Z,20.80
2022-08-25T17:38:57.541Z,20.20
2022-08-25T17:41:28.241Z,25.20
2022-08-25T17:43:56.848Z,22.00
2022-08-25T17:46:25.593Z,20.80
2022-08-25T17:48:54.964Z,24.40
2022-08-25T17:51:24.058Z,21.00
2022-08-25T17:53:53.500Z,23.60
2022-08-25T17:56:28.011Z,23.60
2022-08-25T17:58:57.673Z,56.75
2022-08-25T18:01:29.130Z,21.80
2022-08-25T18:03:58.959Z,23.20
2022-08-25T18:06:29.548Z,22.00
2022-08-25T18:09:01.429Z,23.40
2022-08-25T18:11:33.517Z,20.00
2022-08-25T18:14:02.116Z,23.60
2022-08-25T18:16:30.764Z,23.60
2022-08-25T18:18:59.465Z,24.00
2022-08-25T18:21:30.934Z,23.00
2022-08-25T18:24:01.709Z,24.00
2022-08-25T18:26:30.453Z,40.75
2022-08-25T18:29:02.184Z,36.80
2022-08-25T18:31:30.853Z,49.00
2022-08-25T18:34:00.671Z,27.80
2022-08-25T18:36:29.145Z,26.60
2022-08-25T18:39:16.627Z,29.20
2022-08-25T18:41:45.306Z,32.40
2022-08-25T18:44:15.836Z,27.60
2022-08-25T18:46:45.462Z,33.60
2022-08-25T18:49:17.190Z,27.00
2022-08-25T18:51:46.538Z,23.80
2022-08-25T18:54:22.825Z,24.80
2022-08-25T18:56:53.952Z,26.20
2022-08-25T18:59:24.337Z,25.80
2022-08-25T19:01:54.361Z,25.00
2022-08-25T19:04:31.260Z,28.40
2022-08-25T19:07:01.907Z,48.00
2022-08-25T19:09:32.890Z,24.00
2022-08-25T19:12:02.097Z,29.40
2022-08-25T19:14:32.409Z,48.50
2022-08-25T19:17:01.678Z,29.00
2022-08-25T19:19:30.252Z,24.20
2022-08-25T19:22:00.123Z,27.40
2022-08-25T19:24:29.840Z,27.40
2022-08-25T19:27:02.316Z,22.00
2022-08-25T19:29:33.049Z,24.20
2022-08-25T19:32:02.536Z,23.80
2022-08-25T19:34:35.104Z,22.60
2022-08-25T19:37:05.576Z,22.20
2022-08-25T19:39:39.263Z,28.00
2022-08-25T19:42:31.711Z,26.60
2022-08-25T19:44:59.678Z,27.40
2022-08-25T19:47:29.699Z,23.20
2022-08-25T19:50:00.413Z,23.20
2022-08-25T19:52:28.984Z,21.20
2022-08-25T19:54:58.938Z,26.00
2022-08-25T19:57:42.396Z,24.40
2022-08-25T20:00:18.223Z,12.60
2022-08-25T20:02:47.295Z,26.60
2022-08-25T20:05:23.594Z,28.40
2022-08-25T20:07:53.589Z,26.20
2022-08-25T20:10:23.517Z,24.20
2022-08-25T20:12:52.566Z,22.80
2022-08-25T20:15:22.891Z,24.00
2022-08-25T20:17:56.663Z,26.40
2022-08-25T20:20:34.404Z,28.20
2022-08-25T20:23:17.557Z,27.00
2022-08-25T20:25:47.609Z,24.00
2022-08-25T20:28:19.291Z,25.40
2022-08-25T20:30:49.296Z,24.80
2022-08-25T20:33:22.621Z,27.20
2022-08-25T20:35:53.129Z,21.80
2022-08-25T20:38:21.860Z,28.00
2022-08-25T20:40:50.419Z,27.40
2022-08-25T20:43:20.851Z,21.20
2022-08-25T20:45:51.015Z,23.40
2022-08-25T20:48:19.745Z,26.60
2022-08-25T20:50:57.283Z,27.20
2022-08-25T20:53:27.198Z,25.20
2022-08-25T20:55:55.820Z,22.20
2022-08-25T20:58:24.405Z,29.00
2022-08-25T21:00:56.541Z,23.40
2022-08-25T21:03:25.362Z,29.80
2022-08-25T21:05:54.251Z,27.80
2022-08-25T21:08:23.808Z,26.60
2022-08-25T21:10:54.257Z,22.40
2022-08-25T21:13:22.896Z,23.80
2022-08-25T21:15:51.630Z,27.20
2022-08-25T21:18:21.648Z,28.00
2022-08-25T21:20:50.066Z,33.00
2022-08-25T21:23:18.700Z,29.50
2022-08-25T21:25:47.125Z,29.25
2022-08-25T21:28:15.573Z,28.20
2022-08-25T21:30:47.300Z,22.25
2022-08-25T21:33:16.424Z,18.00
2022-08-25T21:35:46.985Z,26.60
2022-08-25T21:38:15.725Z,31.80
2022-08-25T21:40:45.024Z,28.80
2022-08-25T21:43:13.988Z,28.20
2022-08-25T21:45:46.660Z,31.20
2022-08-25T21:48:16.347Z,26.50
2022-08-25T21:50:46.337Z,28.25
2022-08-25T21:53:14.729Z,28.40
2022-08-25T21:55:44.284Z,27.20
2022-08-25T21:58:13.083Z,27.40
2022-08-25T22:00:42.036Z,29.50
2022-08-25T22:03:10.848Z,26.50
2022-08-25T22:05:40.608Z,28.20
2022-08-25T22:08:13.296Z,27.40
2022-08-25T22:10:45.004Z,31.40
2022-08-25T22:13:13.884Z,28.25
2022-08-25T22:15:42.476Z,25.60
2022-08-25T22:18:10.985Z,7.00
2022-08-25T22:20:39.618Z,28.60
2022-08-25T22:23:10.095Z,29.60
2022-08-25T22:25:50.577Z,30.50
2022-08-25T22:28:19.578Z,28.25
2022-08-25T22:30:48.426Z,29.25
2022-08-25T22:33:17.583Z,28.20
2022-08-25T22:35:46.670Z,28.40
2022-08-25T22:38:15.573Z,27.60
2022-08-25T22:40:45.368Z,26.20
2022-08-25T22:43:16.552Z,26.20
2022-08-25T22:45:45.249Z,29.60
2022-08-25T22:48:14.173Z,28.75
2022-08-25T22:50:42.712Z,29.00
2022-08-25T22:53:11.648Z,30.80
2022-08-25T22:55:43.866Z,27.25
2022-08-25T22:58:14.665Z,27.40
2022-08-25T23:00:44.575Z,29.75
2022-08-25T23:03:15.391Z,28.75
2022-08-25T23:05:44.011Z,30.50
2022-08-25T23:08:13.809Z,24.50
2022-08-25T23:10:50.056Z,27.75
2022-08-25T23:13:34.573Z,29.25
2022-08-25T23:16:05.236Z,25.50
2022-08-25T23:18:34.532Z,32.50
2022-08-25T23:21:16.998Z,27.75
2022-08-25T23:23:53.401Z,24.75
2022-08-25T23:26:22.270Z,32.00
2022-08-25T23:28:51.118Z,32.75
2022-08-25T23:31:21.735Z,26.25
2022-08-25T23:33:52.437Z,27.25
2022-08-25T23:36:21.824Z,27.50
2022-08-25T23:38:51.576Z,30.50
2022-08-25T23:41:22.598Z,32.75
2022-08-25T23:43:51.889Z,32.50
2022-08-25T23:46:24.199Z,26.50
2022-08-25T23:48:56.521Z,33.75
2022-08-25T23:51:27.054Z,28.25
2022-08-25T23:53:59.281Z,27.50
2022-08-25T23:56:28.373Z,26.75
2022-08-25T23:58:57.645Z,33.25
